Oroville, Washington
Current Conditions -  °F | °C
As of 9:30 PM on Saturday 20 Dec 2014 (Local Time) from KOMK Reporting Station
Light Rain Light Rain  
Wind Chill: 34°   Ceiling: 400
Heat Index: 34°   Visibility: 1.7mi
Dew Point: 34°   Wind: 3mph
Humidity: 100%   Direction: 180°S
Pressure: 29.48"   Gusts: NA
Location:  48.94°N, 119.44°W
Report Text: KOMK 210530Z AUTO 18003KT 1 3/4SM -RA BR BKN004 OVC013 01/01 A2948 RMK AO2 P0004 T00110011
Loading
Personal Weather Stations






























Interactive Weather Map New forecast layout! Learn more

10-Day Weather Forecast

Advertisements
Track Severe Weather on mobile